sensor_id;sensor_type;location;lat;lon;timestamp;P1;durP1;ratioP1;P2;durP2;ratioP2
66402;SDS011;53212;52.112;5.144;2024-02-23T00:00:27;8.40;;;1.90;;
66402;SDS011;53212;52.112;5.144;2024-02-23T00:02:52;5.10;;;1.20;;
66402;SDS011;53212;52.112;5.144;2024-02-23T00:05:19;10.20;;;2.10;;
66402;SDS011;53212;52.112;5.144;2024-02-23T00:07:45;12.20;;;1.80;;
66402;SDS011;53212;52.112;5.144;2024-02-23T00:10:10;9.10;;;2.20;;
66402;SDS011;53212;52.112;5.144;2024-02-23T00:12:36;9.40;;;2.00;;
66402;SDS011;53212;52.112;5.144;2024-02-23T00:15:01;9.60;;;2.50;;
66402;SDS011;53212;52.112;5.144;2024-02-23T00:17:27;8.10;;;2.10;;
66402;SDS011;53212;52.112;5.144;2024-02-23T00:19:52;9.70;;;1.70;;
66402;SDS011;53212;52.112;5.144;2024-02-23T00:22:18;9.00;;;2.20;;
66402;SDS011;53212;52.112;5.144;2024-02-23T00:24:43;11.20;;;2.50;;
66402;SDS011;53212;52.112;5.144;2024-02-23T00:27:09;10.60;;;2.20;;
66402;SDS011;53212;52.112;5.144;2024-02-23T00:29:35;10.40;;;2.40;;
66402;SDS011;53212;52.112;5.144;2024-02-23T00:32:01;16.30;;;2.50;;
66402;SDS011;53212;52.112;5.144;2024-02-23T00:34:27;12.50;;;2.30;;
66402;SDS011;53212;52.112;5.144;2024-02-23T00:36:52;13.30;;;1.80;;
66402;SDS011;53212;52.112;5.144;2024-02-23T00:39:18;10.10;;;2.10;;
66402;SDS011;53212;52.112;5.144;2024-02-23T00:41:43;8.90;;;2.00;;
66402;SDS011;53212;52.112;5.144;2024-02-23T00:44:08;10.90;;;2.30;;
66402;SDS011;53212;52.112;5.144;2024-02-23T00:46:34;11.80;;;2.50;;
66402;SDS011;53212;52.112;5.144;2024-02-23T00:48:59;9.00;;;1.70;;
66402;SDS011;53212;52.112;5.144;2024-02-23T00:51:25;12.00;;;2.20;;
66402;SDS011;53212;52.112;5.144;2024-02-23T00:53:50;13.50;;;2.70;;
66402;SDS011;53212;52.112;5.144;2024-02-23T00:56:16;6.80;;;1.40;;
66402;SDS011;53212;52.112;5.144;2024-02-23T00:58:41;10.90;;;1.80;;
66402;SDS011;53212;52.112;5.144;2024-02-23T01:01:07;7.40;;;2.10;;
66402;SDS011;53212;52.112;5.144;2024-02-23T01:03:33;6.40;;;2.00;;
66402;SDS011;53212;52.112;5.144;2024-02-23T01:05:58;6.10;;;1.50;;
66402;SDS011;53212;52.112;5.144;2024-02-23T01:08:24;5.20;;;1.10;;
66402;SDS011;53212;52.112;5.144;2024-02-23T01:10:49;4.70;;;1.10;;
66402;SDS011;53212;52.112;5.144;2024-02-23T01:13:15;4.30;;;1.70;;
66402;SDS011;53212;52.112;5.144;2024-02-23T01:15:41;6.00;;;1.90;;
66402;SDS011;53212;52.112;5.144;2024-02-23T01:18:07;3.80;;;1.30;;
66402;SDS011;53212;52.112;5.144;2024-02-23T01:20:33;5.60;;;1.40;;
66402;SDS011;53212;52.112;5.144;2024-02-23T01:22:59;5.30;;;1.70;;
66402;SDS011;53212;52.112;5.144;2024-02-23T01:25:26;6.10;;;1.80;;
66402;SDS011;53212;52.112;5.144;2024-02-23T01:27:51;4.30;;;1.10;;
66402;SDS011;53212;52.112;5.144;2024-02-23T01:30:17;8.40;;;1.80;;
66402;SDS011;53212;52.112;5.144;2024-02-23T01:32:44;9.00;;;1.90;;
66402;SDS011;53212;52.112;5.144;2024-02-23T01:35:10;7.90;;;1.50;;
66402;SDS011;53212;52.112;5.144;2024-02-23T01:37:35;5.70;;;1.60;;
66402;SDS011;53212;52.112;5.144;2024-02-23T01:40:01;8.10;;;1.90;;
66402;SDS011;53212;52.112;5.144;2024-02-23T01:42:26;5.80;;;1.50;;
66402;SDS011;53212;52.112;5.144;2024-02-23T01:44:52;7.40;;;2.10;;
66402;SDS011;53212;52.112;5.144;2024-02-23T01:47:18;9.80;;;1.70;;
66402;SDS011;53212;52.112;5.144;2024-02-23T01:49:45;5.60;;;1.60;;
66402;SDS011;53212;52.112;5.144;2024-02-23T01:52:12;6.20;;;1.80;;
66402;SDS011;53212;52.112;5.144;2024-02-23T01:54:39;6.90;;;1.90;;
66402;SDS011;53212;52.112;5.144;2024-02-23T01:57:05;8.20;;;2.00;;
66402;SDS011;53212;52.112;5.144;2024-02-23T01:59:32;5.40;;;1.90;;
66402;SDS011;53212;52.112;5.144;2024-02-23T02:01:57;4.70;;;1.50;;
66402;SDS011;53212;52.112;5.144;2024-02-23T02:04:23;7.90;;;1.50;;
66402;SDS011;53212;52.112;5.144;2024-02-23T02:06:48;8.10;;;1.90;;
66402;SDS011;53212;52.112;5.144;2024-02-23T02:09:14;7.90;;;1.90;;
66402;SDS011;53212;52.112;5.144;2024-02-23T02:11:50;8.90;;;1.40;;
66402;SDS011;53212;52.112;5.144;2024-02-23T02:14:16;5.90;;;1.30;;
66402;SDS011;53212;52.112;5.144;2024-02-23T02:16:42;7.90;;;1.60;;
66402;SDS011;53212;52.112;5.144;2024-02-23T02:19:12;9.20;;;1.50;;
66402;SDS011;53212;52.112;5.144;2024-02-23T02:21:38;11.70;;;1.80;;
66402;SDS011;53212;52.112;5.144;2024-02-23T02:24:04;7.30;;;2.00;;
66402;SDS011;53212;52.112;5.144;2024-02-23T02:26:30;4.90;;;1.70;;
66402;SDS011;53212;52.112;5.144;2024-02-23T02:28:56;5.90;;;1.40;;
66402;SDS011;53212;52.112;5.144;2024-02-23T02:31:21;9.20;;;1.70;;
66402;SDS011;53212;52.112;5.144;2024-02-23T02:33:47;7.50;;;1.90;;
66402;SDS011;53212;52.112;5.144;2024-02-23T02:36:12;11.80;;;1.90;;
66402;SDS011;53212;52.112;5.144;2024-02-23T02:38:38;10.30;;;1.60;;
66402;SDS011;53212;52.112;5.144;2024-02-23T02:41:04;8.00;;;1.60;;
66402;SDS011;53212;52.112;5.144;2024-02-23T02:43:30;7.90;;;1.70;;
66402;SDS011;53212;52.112;5.144;2024-02-23T02:45:56;7.70;;;2.10;;
66402;SDS011;53212;52.112;5.144;2024-02-23T02:48:23;5.10;;;1.70;;
66402;SDS011;53212;52.112;5.144;2024-02-23T02:50:50;8.10;;;2.00;;
66402;SDS011;53212;52.112;5.144;2024-02-23T02:53:16;6.40;;;1.40;;
66402;SDS011;53212;52.112;5.144;2024-02-23T02:55:42;7.10;;;1.60;;
66402;SDS011;53212;52.112;5.144;2024-02-23T02:58:09;9.90;;;2.60;;
66402;SDS011;53212;52.112;5.144;2024-02-23T03:00:36;9.40;;;2.20;;
66402;SDS011;53212;52.112;5.144;2024-02-23T03:03:01;6.40;;;2.10;;
66402;SDS011;53212;52.112;5.144;2024-02-23T03:05:27;8.60;;;1.90;;
66402;SDS011;53212;52.112;5.144;2024-02-23T03:07:52;7.60;;;2.20;;
66402;SDS011;53212;52.112;5.144;2024-02-23T03:10:18;7.80;;;2.20;;
66402;SDS011;53212;52.112;5.144;2024-02-23T03:12:43;7.30;;;2.20;;
66402;SDS011;53212;52.112;5.144;2024-02-23T03:15:09;5.30;;;1.90;;
66402;SDS011;53212;52.112;5.144;2024-02-23T03:17:37;7.80;;;1.70;;
66402;SDS011;53212;52.112;5.144;2024-02-23T03:20:04;6.40;;;1.50;;
66402;SDS011;53212;52.112;5.144;2024-02-23T03:22:31;6.90;;;2.20;;
66402;SDS011;53212;52.112;5.144;2024-02-23T03:24:56;6.90;;;1.60;;
66402;SDS011;53212;52.112;5.144;2024-02-23T03:27:28;9.00;;;2.20;;
66402;SDS011;53212;52.112;5.144;2024-02-23T03:29:56;8.30;;;2.10;;
66402;SDS011;53212;52.112;5.144;2024-02-23T03:32:22;4.80;;;1.90;;
66402;SDS011;53212;52.112;5.144;2024-02-23T03:34:47;5.90;;;2.00;;
66402;SDS011;53212;52.112;5.144;2024-02-23T03:37:13;6.80;;;1.80;;
66402;SDS011;53212;52.112;5.144;2024-02-23T03:39:39;6.10;;;1.90;;
66402;SDS011;53212;52.112;5.144;2024-02-23T03:42:04;7.30;;;2.20;;
66402;SDS011;53212;52.112;5.144;2024-02-23T03:44:30;6.00;;;2.30;;
66402;SDS011;53212;52.112;5.144;2024-02-23T03:46:56;8.80;;;2.50;;
66402;SDS011;53212;52.112;5.144;2024-02-23T03:49:22;5.70;;;2.10;;
66402;SDS011;53212;52.112;5.144;2024-02-23T03:51:47;7.70;;;2.00;;
66402;SDS011;53212;52.112;5.144;2024-02-23T03:54:13;7.90;;;2.10;;
66402;SDS011;53212;52.112;5.144;2024-02-23T03:56:39;8.40;;;2.00;;
66402;SDS011;53212;52.112;5.144;2024-02-23T03:59:06;4.90;;;1.90;;
66402;SDS011;53212;52.112;5.144;2024-02-23T04:01:38;6.10;;;1.70;;
66402;SDS011;53212;52.112;5.144;2024-02-23T04:04:05;6.00;;;1.90;;
66402;SDS011;53212;52.112;5.144;2024-02-23T04:06:31;6.50;;;1.90;;
66402;SDS011;53212;52.112;5.144;2024-02-23T04:08:58;6.10;;;1.80;;
66402;SDS011;53212;52.112;5.144;2024-02-23T04:11:23;8.40;;;1.90;;
66402;SDS011;53212;52.112;5.144;2024-02-23T04:13:49;7.60;;;2.60;;
66402;SDS011;53212;52.112;5.144;2024-02-23T04:16:14;6.90;;;1.90;;
66402;SDS011;53212;52.112;5.144;2024-02-23T04:18:40;7.80;;;2.30;;
66402;SDS011;53212;52.112;5.144;2024-02-23T04:21:05;8.50;;;1.70;;
66402;SDS011;53212;52.112;5.144;2024-02-23T04:23:31;6.20;;;1.90;;
66402;SDS011;53212;52.112;5.144;2024-02-23T04:25:56;7.50;;;2.10;;
66402;SDS011;53212;52.112;5.144;2024-02-23T04:28:21;7.50;;;2.20;;
66402;SDS011;53212;52.112;5.144;2024-02-23T04:30:47;8.60;;;2.00;;
66402;SDS011;53212;52.112;5.144;2024-02-23T04:33:12;5.30;;;1.70;;
66402;SDS011;53212;52.112;5.144;2024-02-23T04:35:38;11.30;;;2.70;;
66402;SDS011;53212;52.112;5.144;2024-02-23T04:38:03;9.00;;;2.20;;
66402;SDS011;53212;52.112;5.144;2024-02-23T04:40:29;7.30;;;2.30;;
66402;SDS011;53212;52.112;5.144;2024-02-23T04:42:54;5.00;;;1.60;;
66402;SDS011;53212;52.112;5.144;2024-02-23T04:45:20;10.30;;;2.00;;
66402;SDS011;53212;52.112;5.144;2024-02-23T04:47:45;5.10;;;1.60;;
66402;SDS011;53212;52.112;5.144;2024-02-23T04:50:12;8.20;;;2.10;;
66402;SDS011;53212;52.112;5.144;2024-02-23T04:52:37;6.40;;;2.20;;
66402;SDS011;53212;52.112;5.144;2024-02-23T04:55:03;6.90;;;2.10;;
66402;SDS011;53212;52.112;5.144;2024-02-23T04:57:28;9.20;;;2.60;;
66402;SDS011;53212;52.112;5.144;2024-02-23T04:59:54;8.20;;;2.00;;
66402;SDS011;53212;52.112;5.144;2024-02-23T05:02:19;7.60;;;2.10;;
66402;SDS011;53212;52.112;5.144;2024-02-23T05:04:45;4.50;;;1.90;;
66402;SDS011;53212;52.112;5.144;2024-02-23T05:07:11;6.50;;;2.20;;
66402;SDS011;53212;52.112;5.144;2024-02-23T05:09:37;7.80;;;2.30;;
66402;SDS011;53212;52.112;5.144;2024-02-23T05:12:03;6.20;;;1.90;;
66402;SDS011;53212;52.112;5.144;2024-02-23T05:14:29;4.90;;;2.20;;
66402;SDS011;53212;52.112;5.144;2024-02-23T05:16:54;7.60;;;2.20;;
66402;SDS011;53212;52.112;5.144;2024-02-23T05:19:19;8.30;;;2.10;;
66402;SDS011;53212;52.112;5.144;2024-02-23T05:21:45;7.50;;;2.20;;
66402;SDS011;53212;52.112;5.144;2024-02-23T05:24:11;5.10;;;2.20;;
66402;SDS011;53212;52.112;5.144;2024-02-23T05:26:36;6.00;;;2.20;;
66402;SDS011;53212;52.112;5.144;2024-02-23T05:29:02;6.70;;;2.10;;
66402;SDS011;53212;52.112;5.144;2024-02-23T05:31:44;7.20;;;2.00;;
66402;SDS011;53212;52.112;5.144;2024-02-23T05:34:11;6.70;;;2.10;;
66402;SDS011;53212;52.112;5.144;2024-02-23T05:36:37;7.40;;;2.90;;
66402;SDS011;53212;52.112;5.144;2024-02-23T05:39:02;6.50;;;2.40;;
66402;SDS011;53212;52.112;5.144;2024-02-23T05:41:28;4.70;;;2.60;;
66402;SDS011;53212;52.112;5.144;2024-02-23T05:43:53;8.00;;;2.50;;
66402;SDS011;53212;52.112;5.144;2024-02-23T05:46:18;6.30;;;2.30;;
66402;SDS011;53212;52.112;5.144;2024-02-23T05:48:46;6.50;;;2.60;;
66402;SDS011;53212;52.112;5.144;2024-02-23T05:51:11;8.40;;;2.40;;
66402;SDS011;53212;52.112;5.144;2024-02-23T05:53:37;6.40;;;2.60;;
66402;SDS011;53212;52.112;5.144;2024-02-23T05:56:02;10.80;;;2.90;;
66402;SDS011;53212;52.112;5.144;2024-02-23T05:58:28;5.30;;;2.60;;
66402;SDS011;53212;52.112;5.144;2024-02-23T06:00:54;7.60;;;2.70;;
66402;SDS011;53212;52.112;5.144;2024-02-23T06:03:19;8.20;;;2.80;;
66402;SDS011;53212;52.112;5.144;2024-02-23T06:05:45;5.80;;;2.50;;
66402;SDS011;53212;52.112;5.144;2024-02-23T06:08:11;3.90;;;2.10;;
66402;SDS011;53212;52.112;5.144;2024-02-23T06:10:36;6.60;;;2.40;;
66402;SDS011;53212;52.112;5.144;2024-02-23T06:13:03;9.50;;;2.50;;
66402;SDS011;53212;52.112;5.144;2024-02-23T06:15:29;6.90;;;2.40;;
66402;SDS011;53212;52.112;5.144;2024-02-23T06:17:54;6.50;;;2.20;;
66402;SDS011;53212;52.112;5.144;2024-02-23T06:20:19;7.70;;;2.70;;
66402;SDS011;53212;52.112;5.144;2024-02-23T06:22:45;7.70;;;2.00;;
66402;SDS011;53212;52.112;5.144;2024-02-23T06:25:10;6.70;;;2.50;;
66402;SDS011;53212;52.112;5.144;2024-02-23T06:27:37;6.40;;;2.10;;
66402;SDS011;53212;52.112;5.144;2024-02-23T06:30:03;5.10;;;1.90;;
66402;SDS011;53212;52.112;5.144;2024-02-23T06:32:30;4.60;;;1.60;;
66402;SDS011;53212;52.112;5.144;2024-02-23T06:34:55;4.90;;;2.00;;
66402;SDS011;53212;52.112;5.144;2024-02-23T06:37:21;2.90;;;1.80;;
66402;SDS011;53212;52.112;5.144;2024-02-23T06:39:46;5.20;;;2.00;;
66402;SDS011;53212;52.112;5.144;2024-02-23T06:42:16;5.10;;;1.70;;
66402;SDS011;53212;52.112;5.144;2024-02-23T06:44:41;5.50;;;1.70;;
66402;SDS011;53212;52.112;5.144;2024-02-23T06:47:07;8.10;;;2.20;;
66402;SDS011;53212;52.112;5.144;2024-02-23T06:49:32;3.30;;;1.70;;
66402;SDS011;53212;52.112;5.144;2024-02-23T06:51:58;3.40;;;1.70;;
66402;SDS011;53212;52.112;5.144;2024-02-23T06:54:23;7.20;;;2.00;;
66402;SDS011;53212;52.112;5.144;2024-02-23T06:56:48;4.80;;;1.80;;
66402;SDS011;53212;52.112;5.144;2024-02-23T06:59:14;5.90;;;2.10;;
66402;SDS011;53212;52.112;5.144;2024-02-23T07:01:49;6.70;;;1.50;;
66402;SDS011;53212;52.112;5.144;2024-02-23T07:04:16;5.10;;;1.70;;
66402;SDS011;53212;52.112;5.144;2024-02-23T07:06:41;3.00;;;1.60;;
66402;SDS011;53212;52.112;5.144;2024-02-23T07:09:06;6.40;;;1.70;;
66402;SDS011;53212;52.112;5.144;2024-02-23T07:11:33;5.90;;;1.90;;
66402;SDS011;53212;52.112;5.144;2024-02-23T07:13:58;4.80;;;1.70;;
66402;SDS011;53212;52.112;5.144;2024-02-23T07:16:24;5.60;;;1.90;;
66402;SDS011;53212;52.112;5.144;2024-02-23T07:18:49;5.60;;;1.60;;
66402;SDS011;53212;52.112;5.144;2024-02-23T07:21:17;4.40;;;1.60;;
66402;SDS011;53212;52.112;5.144;2024-02-23T07:23:43;6.90;;;1.50;;
66402;SDS011;53212;52.112;5.144;2024-02-23T07:26:09;4.70;;;1.60;;
66402;SDS011;53212;52.112;5.144;2024-02-23T07:28:34;4.10;;;1.50;;
66402;SDS011;53212;52.112;5.144;2024-02-23T07:31:00;5.60;;;1.60;;
66402;SDS011;53212;52.112;5.144;2024-02-23T07:33:25;8.10;;;2.10;;
66402;SDS011;53212;52.112;5.144;2024-02-23T07:35:51;6.30;;;1.70;;
66402;SDS011;53212;52.112;5.144;2024-02-23T07:38:16;4.00;;;1.60;;
66402;SDS011;53212;52.112;5.144;2024-02-23T07:40:44;3.80;;;1.30;;
66402;SDS011;53212;52.112;5.144;2024-02-23T07:43:09;4.40;;;1.40;;
66402;SDS011;53212;52.112;5.144;2024-02-23T07:45:36;4.70;;;1.60;;
66402;SDS011;53212;52.112;5.144;2024-02-23T07:48:03;5.40;;;1.70;;
66402;SDS011;53212;52.112;5.144;2024-02-23T07:50:29;6.50;;;1.70;;
66402;SDS011;53212;52.112;5.144;2024-02-23T07:52:54;4.30;;;1.30;;
66402;SDS011;53212;52.112;5.144;2024-02-23T07:55:20;8.00;;;1.70;;
66402;SDS011;53212;52.112;5.144;2024-02-23T07:57:46;4.80;;;1.80;;
66402;SDS011;53212;52.112;5.144;2024-02-23T08:00:11;4.60;;;1.50;;
66402;SDS011;53212;52.112;5.144;2024-02-23T08:02:38;5.30;;;1.70;;
66402;SDS011;53212;52.112;5.144;2024-02-23T08:05:04;4.80;;;1.70;;
66402;SDS011;53212;52.112;5.144;2024-02-23T08:07:29;2.80;;;1.20;;
66402;SDS011;53212;52.112;5.144;2024-02-23T08:09:56;4.40;;;1.60;;
66402;SDS011;53212;52.112;5.144;2024-02-23T08:12:22;4.20;;;1.90;;
66402;SDS011;53212;52.112;5.144;2024-02-23T08:14:47;4.70;;;1.70;;
66402;SDS011;53212;52.112;5.144;2024-02-23T08:17:15;4.00;;;1.60;;
66402;SDS011;53212;52.112;5.144;2024-02-23T08:19:41;8.30;;;1.60;;
66402;SDS011;53212;52.112;5.144;2024-02-23T08:22:07;5.80;;;1.80;;
66402;SDS011;53212;52.112;5.144;2024-02-23T08:24:32;5.50;;;2.00;;
66402;SDS011;53212;52.112;5.144;2024-02-23T08:26:58;6.10;;;1.90;;
66402;SDS011;53212;52.112;5.144;2024-02-23T08:29:23;5.60;;;1.30;;
66402;SDS011;53212;52.112;5.144;2024-02-23T08:31:49;5.30;;;1.80;;
66402;SDS011;53212;52.112;5.144;2024-02-23T08:34:14;7.10;;;1.80;;
66402;SDS011;53212;52.112;5.144;2024-02-23T08:36:40;9.50;;;2.70;;
66402;SDS011;53212;52.112;5.144;2024-02-23T08:39:05;6.00;;;1.90;;
66402;SDS011;53212;52.112;5.144;2024-02-23T08:41:30;5.30;;;1.60;;
66402;SDS011;53212;52.112;5.144;2024-02-23T08:43:56;6.00;;;2.00;;
66402;SDS011;53212;52.112;5.144;2024-02-23T08:46:21;7.70;;;1.80;;
66402;SDS011;53212;52.112;5.144;2024-02-23T08:48:47;5.50;;;1.70;;
66402;SDS011;53212;52.112;5.144;2024-02-23T08:51:13;10.40;;;2.80;;
66402;SDS011;53212;52.112;5.144;2024-02-23T08:53:39;6.50;;;1.90;;
66402;SDS011;53212;52.112;5.144;2024-02-23T08:56:06;8.00;;;1.90;;
66402;SDS011;53212;52.112;5.144;2024-02-23T08:58:32;6.00;;;1.90;;
66402;SDS011;53212;52.112;5.144;2024-02-23T09:00:58;6.00;;;2.10;;
66402;SDS011;53212;52.112;5.144;2024-02-23T09:03:23;4.60;;;1.40;;
66402;SDS011;53212;52.112;5.144;2024-02-23T09:05:49;4.50;;;2.20;;
66402;SDS011;53212;52.112;5.144;2024-02-23T09:08:15;6.10;;;1.70;;
66402;SDS011;53212;52.112;5.144;2024-02-23T09:10:41;3.70;;;1.80;;
66402;SDS011;53212;52.112;5.144;2024-02-23T09:13:06;4.90;;;1.70;;
66402;SDS011;53212;52.112;5.144;2024-02-23T09:15:31;6.90;;;2.30;;
66402;SDS011;53212;52.112;5.144;2024-02-23T09:17:57;7.30;;;2.00;;
66402;SDS011;53212;52.112;5.144;2024-02-23T09:20:22;4.70;;;2.00;;
66402;SDS011;53212;52.112;5.144;2024-02-23T09:22:48;5.80;;;2.00;;
66402;SDS011;53212;52.112;5.144;2024-02-23T09:25:14;5.50;;;1.70;;
66402;SDS011;53212;52.112;5.144;2024-02-23T09:27:40;6.80;;;1.90;;
66402;SDS011;53212;52.112;5.144;2024-02-23T09:30:17;7.40;;;2.20;;
66402;SDS011;53212;52.112;5.144;2024-02-23T09:32:43;4.70;;;1.60;;
66402;SDS011;53212;52.112;5.144;2024-02-23T09:35:09;5.00;;;1.70;;
66402;SDS011;53212;52.112;5.144;2024-02-23T09:37:35;4.70;;;1.60;;
66402;SDS011;53212;52.112;5.144;2024-02-23T09:40:01;4.80;;;1.60;;
66402;SDS011;53212;52.112;5.144;2024-02-23T09:42:26;6.70;;;1.90;;
66402;SDS011;53212;52.112;5.144;2024-02-23T09:44:58;5.20;;;1.80;;
66402;SDS011;53212;52.112;5.144;2024-02-23T09:47:28;3.90;;;1.50;;
66402;SDS011;53212;52.112;5.144;2024-02-23T09:49:54;4.40;;;1.30;;
66402;SDS011;53212;52.112;5.144;2024-02-23T09:52:21;7.00;;;1.70;;
66402;SDS011;53212;52.112;5.144;2024-02-23T09:54:48;4.20;;;1.80;;
66402;SDS011;53212;52.112;5.144;2024-02-23T09:57:15;4.00;;;1.30;;
66402;SDS011;53212;52.112;5.144;2024-02-23T09:59:42;2.90;;;1.30;;
66402;SDS011;53212;52.112;5.144;2024-02-23T10:02:08;3.30;;;1.50;;
66402;SDS011;53212;52.112;5.144;2024-02-23T10:04:41;4.50;;;1.50;;
66402;SDS011;53212;52.112;5.144;2024-02-23T10:07:14;3.70;;;1.50;;
66402;SDS011;53212;52.112;5.144;2024-02-23T10:09:43;3.50;;;1.40;;
66402;SDS011;53212;52.112;5.144;2024-02-23T10:12:08;2.70;;;1.40;;
66402;SDS011;53212;52.112;5.144;2024-02-23T10:14:34;2.90;;;1.40;;
66402;SDS011;53212;52.112;5.144;2024-02-23T10:16:59;5.60;;;1.70;;
66402;SDS011;53212;52.112;5.144;2024-02-23T10:19:26;5.60;;;2.00;;
66402;SDS011;53212;52.112;5.144;2024-02-23T10:21:55;4.40;;;1.70;;
66402;SDS011;53212;52.112;5.144;2024-02-23T10:24:22;5.30;;;1.60;;
66402;SDS011;53212;52.112;5.144;2024-02-23T10:26:51;4.20;;;1.70;;
66402;SDS011;53212;52.112;5.144;2024-02-23T10:29:17;6.80;;;2.00;;
66402;SDS011;53212;52.112;5.144;2024-02-23T10:31:43;3.40;;;1.40;;
66402;SDS011;53212;52.112;5.144;2024-02-23T10:34:14;3.10;;;1.20;;
66402;SDS011;53212;52.112;5.144;2024-02-23T10:36:44;3.70;;;1.60;;
66402;SDS011;53212;52.112;5.144;2024-02-23T10:39:17;4.40;;;1.60;;
66402;SDS011;53212;52.112;5.144;2024-02-23T10:41:57;3.30;;;1.30;;
66402;SDS011;53212;52.112;5.144;2024-02-23T10:44:26;2.70;;;1.40;;
66402;SDS011;53212;52.112;5.144;2024-02-23T10:46:54;3.20;;;1.40;;
66402;SDS011;53212;52.112;5.144;2024-02-23T10:49:21;3.10;;;1.40;;
66402;SDS011;53212;52.112;5.144;2024-02-23T10:51:51;4.90;;;1.60;;
66402;SDS011;53212;52.112;5.144;2024-02-23T10:54:17;4.30;;;1.40;;
66402;SDS011;53212;52.112;5.144;2024-02-23T10:56:52;4.40;;;1.40;;
66402;SDS011;53212;52.112;5.144;2024-02-23T10:59:18;3.20;;;1.40;;
66402;SDS011;53212;52.112;5.144;2024-02-23T11:01:49;4.20;;;1.30;;
66402;SDS011;53212;52.112;5.144;2024-02-23T11:04:20;2.40;;;1.30;;
66402;SDS011;53212;52.112;5.144;2024-02-23T11:06:54;5.20;;;1.70;;
66402;SDS011;53212;52.112;5.144;2024-02-23T11:09:24;3.50;;;1.80;;
66402;SDS011;53212;52.112;5.144;2024-02-23T11:11:55;4.80;;;1.60;;
66402;SDS011;53212;52.112;5.144;2024-02-23T11:14:37;6.00;;;1.60;;
66402;SDS011;53212;52.112;5.144;2024-02-23T11:17:03;4.50;;;1.70;;
66402;SDS011;53212;52.112;5.144;2024-02-23T11:19:37;5.20;;;1.40;;
66402;SDS011;53212;52.112;5.144;2024-02-23T11:22:05;2.90;;;1.20;;
66402;SDS011;53212;52.112;5.144;2024-02-23T11:24:34;5.50;;;1.90;;
66402;SDS011;53212;52.112;5.144;2024-02-23T11:27:01;2.50;;;1.60;;
66402;SDS011;53212;52.112;5.144;2024-02-23T11:29:33;5.40;;;1.50;;
66402;SDS011;53212;52.112;5.144;2024-02-23T11:32:00;6.10;;;1.80;;
66402;SDS011;53212;52.112;5.144;2024-02-23T11:34:29;3.70;;;1.60;;
66402;SDS011;53212;52.112;5.144;2024-02-23T11:36:56;4.40;;;1.50;;
66402;SDS011;53212;52.112;5.144;2024-02-23T11:39:23;6.00;;;1.80;;
66402;SDS011;53212;52.112;5.144;2024-02-23T11:41:49;4.90;;;2.00;;
66402;SDS011;53212;52.112;5.144;2024-02-23T11:44:15;2.50;;;1.40;;
66402;SDS011;53212;52.112;5.144;2024-02-23T11:46:43;3.00;;;1.50;;
66402;SDS011;53212;52.112;5.144;2024-02-23T11:49:10;2.90;;;1.30;;
66402;SDS011;53212;52.112;5.144;2024-02-23T11:51:36;2.60;;;1.40;;
66402;SDS011;53212;52.112;5.144;2024-02-23T11:54:01;2.80;;;1.40;;
66402;SDS011;53212;52.112;5.144;2024-02-23T11:56:29;4.70;;;1.70;;
66402;SDS011;53212;52.112;5.144;2024-02-23T11:58:55;4.30;;;1.90;;
66402;SDS011;53212;52.112;5.144;2024-02-23T12:01:21;4.50;;;1.60;;
66402;SDS011;53212;52.112;5.144;2024-02-23T12:03:47;4.10;;;1.50;;
66402;SDS011;53212;52.112;5.144;2024-02-23T12:06:14;8.50;;;1.80;;
66402;SDS011;53212;52.112;5.144;2024-02-23T12:08:41;2.30;;;1.50;;
66402;SDS011;53212;52.112;5.144;2024-02-23T12:11:07;5.60;;;1.70;;
66402;SDS011;53212;52.112;5.144;2024-02-23T12:13:35;4.40;;;1.40;;
66402;SDS011;53212;52.112;5.144;2024-02-23T12:16:01;3.50;;;1.50;;
66402;SDS011;53212;52.112;5.144;2024-02-23T12:18:28;4.50;;;1.40;;
66402;SDS011;53212;52.112;5.144;2024-02-23T12:21:02;3.30;;;1.40;;
66402;SDS011;53212;52.112;5.144;2024-02-23T12:23:43;4.00;;;1.20;;
66402;SDS011;53212;52.112;5.144;2024-02-23T12:26:16;4.00;;;1.50;;
66402;SDS011;53212;52.112;5.144;2024-02-23T12:28:43;2.70;;;1.20;;
66402;SDS011;53212;52.112;5.144;2024-02-23T12:31:10;3.00;;;1.40;;
66402;SDS011;53212;52.112;5.144;2024-02-23T12:33:37;3.50;;;1.60;;
66402;SDS011;53212;52.112;5.144;2024-02-23T12:36:08;5.30;;;1.50;;
66402;SDS011;53212;52.112;5.144;2024-02-23T12:38:35;2.20;;;1.10;;
66402;SDS011;53212;52.112;5.144;2024-02-23T12:41:02;4.10;;;1.20;;
66402;SDS011;53212;52.112;5.144;2024-02-23T12:43:28;2.90;;;1.10;;
66402;SDS011;53212;52.112;5.144;2024-02-23T12:45:55;3.20;;;1.30;;
66402;SDS011;53212;52.112;5.144;2024-02-23T12:48:21;3.00;;;1.50;;
66402;SDS011;53212;52.112;5.144;2024-02-23T12:50:48;3.70;;;1.50;;
66402;SDS011;53212;52.112;5.144;2024-02-23T12:56:07;4.30;;;1.20;;
66402;SDS011;53212;52.112;5.144;2024-02-23T12:58:39;3.60;;;1.50;;
66402;SDS011;53212;52.112;5.144;2024-02-23T13:01:06;4.60;;;1.40;;
66402;SDS011;53212;52.112;5.144;2024-02-23T13:03:33;2.20;;;1.20;;
66402;SDS011;53212;52.112;5.144;2024-02-23T13:05:59;3.50;;;1.30;;
66402;SDS011;53212;52.112;5.144;2024-02-23T13:08:25;3.30;;;1.20;;
66402;SDS011;53212;52.112;5.144;2024-02-23T13:10:52;4.20;;;1.10;;
66402;SDS011;53212;52.112;5.144;2024-02-23T13:13:19;4.10;;;1.20;;
66402;SDS011;53212;52.112;5.144;2024-02-23T13:15:46;3.20;;;1.30;;
66402;SDS011;53212;52.112;5.144;2024-02-23T13:18:12;2.20;;;1.20;;
66402;SDS011;53212;52.112;5.144;2024-02-23T13:20:38;2.40;;;1.30;;
66402;SDS011;53212;52.112;5.144;2024-02-23T13:23:08;3.90;;;1.30;;
66402;SDS011;53212;52.112;5.144;2024-02-23T13:25:37;4.20;;;1.20;;
66402;SDS011;53212;52.112;5.144;2024-02-23T13:28:04;4.30;;;1.30;;
66402;SDS011;53212;52.112;5.144;2024-02-23T13:30:31;4.60;;;1.90;;
66402;SDS011;53212;52.112;5.144;2024-02-23T13:32:58;3.90;;;1.50;;
66402;SDS011;53212;52.112;5.144;2024-02-23T13:35:23;2.90;;;1.30;;
66402;SDS011;53212;52.112;5.144;2024-02-23T13:37:49;3.90;;;1.30;;
66402;SDS011;53212;52.112;5.144;2024-02-23T13:40:14;4.90;;;1.60;;
66402;SDS011;53212;52.112;5.144;2024-02-23T13:42:40;2.40;;;1.30;;
66402;SDS011;53212;52.112;5.144;2024-02-23T13:45:07;4.60;;;1.20;;
66402;SDS011;53212;52.112;5.144;2024-02-23T13:47:34;2.30;;;1.20;;
66402;SDS011;53212;52.112;5.144;2024-02-23T13:50:01;2.60;;;1.20;;
66402;SDS011;53212;52.112;5.144;2024-02-23T13:52:27;3.80;;;1.30;;
66402;SDS011;53212;52.112;5.144;2024-02-23T13:54:53;3.10;;;1.20;;
66402;SDS011;53212;52.112;5.144;2024-02-23T13:57:19;3.70;;;1.20;;
66402;SDS011;53212;52.112;5.144;2024-02-23T13:59:45;2.50;;;1.20;;
66402;SDS011;53212;52.112;5.144;2024-02-23T14:02:11;4.30;;;1.50;;
66402;SDS011;53212;52.112;5.144;2024-02-23T14:04:37;2.00;;;1.20;;
66402;SDS011;53212;52.112;5.144;2024-02-23T14:07:02;2.70;;;1.10;;
66402;SDS011;53212;52.112;5.144;2024-02-23T14:09:30;4.00;;;1.60;;
66402;SDS011;53212;52.112;5.144;2024-02-23T14:11:56;2.30;;;1.20;;
66402;SDS011;53212;52.112;5.144;2024-02-23T14:14:22;2.60;;;1.30;;
66402;SDS011;53212;52.112;5.144;2024-02-23T14:16:48;2.20;;;1.40;;
66402;SDS011;53212;52.112;5.144;2024-02-23T14:19:14;4.00;;;1.30;;
66402;SDS011;53212;52.112;5.144;2024-02-23T14:21:39;1.20;;;1.00;;
66402;SDS011;53212;52.112;5.144;2024-02-23T14:24:06;6.40;;;1.30;;
66402;SDS011;53212;52.112;5.144;2024-02-23T14:26:31;2.60;;;1.20;;
66402;SDS011;53212;52.112;5.144;2024-02-23T14:28:58;1.70;;;1.00;;
66402;SDS011;53212;52.112;5.144;2024-02-23T14:31:24;2.60;;;1.30;;
66402;SDS011;53212;52.112;5.144;2024-02-23T14:33:51;2.40;;;1.00;;
66402;SDS011;53212;52.112;5.144;2024-02-23T14:36:18;1.80;;;1.20;;
66402;SDS011;53212;52.112;5.144;2024-02-23T14:38:44;1.80;;;1.10;;
66402;SDS011;53212;52.112;5.144;2024-02-23T14:41:10;1.00;;;0.70;;
66402;SDS011;53212;52.112;5.144;2024-02-23T14:43:36;1.80;;;0.90;;
66402;SDS011;53212;52.112;5.144;2024-02-23T14:46:02;1.30;;;1.10;;